sensor_id;sensor_type;location;lat;lon;timestamp;pressure;altitude;pressure_sealevel;temperature;humidity
68525;BME280;55524;51.380;13.372;2024-02-14T00:00:12;100985.56;;;1.72;100.00
68525;BME280;55524;51.380;13.372;2024-02-14T00:02:46;100984.75;;;1.80;100.00
68525;BME280;55524;51.380;13.372;2024-02-14T00:05:19;100989.13;;;1.82;100.00
68525;BME280;55524;51.380;13.372;2024-02-14T00:07:46;100985.63;;;1.82;100.00
68525;BME280;55524;51.380;13.372;2024-02-14T00:10:12;100988.25;;;1.83;100.00
68525;BME280;55524;51.380;13.372;2024-02-14T00:12:38;100998.69;;;1.88;100.00
68525;BME280;55524;51.380;13.372;2024-02-14T00:15:06;100983.94;;;1.90;100.00
68525;BME280;55524;51.380;13.372;2024-02-14T00:17:33;100987.41;;;1.89;100.00
68525;BME280;55524;51.380;13.372;2024-02-14T00:20:00;100991.78;;;1.91;100.00
68525;BME280;55524;51.380;13.372;2024-02-14T00:22:27;100990.97;;;1.99;100.00
68525;BME280;55524;51.380;13.372;2024-02-14T00:25:13;100981.44;;;2.05;100.00
68525;BME280;55524;51.380;13.372;2024-02-14T00:27:40;100987.50;;;2.06;100.00
68525;BME280;55524;51.380;13.372;2024-02-14T00:30:07;100987.50;;;2.04;100.00
68525;BME280;55524;51.380;13.372;2024-02-14T00:32:33;100975.38;;;2.06;100.00
68525;BME280;55524;51.380;13.372;2024-02-14T00:35:04;100990.13;;;2.04;100.00
68525;BME280;55524;51.380;13.372;2024-02-14T00:37:36;100991.88;;;2.07;100.00
68525;BME280;55524;51.380;13.372;2024-02-14T00:40:03;100980.59;;;2.09;100.00
68525;BME280;55524;51.380;13.372;2024-02-14T00:42:30;100977.16;;;2.16;100.00
68525;BME280;55524;51.380;13.372;2024-02-14T00:44:58;100985.03;;;2.22;100.00
68525;BME280;55524;51.380;13.372;2024-02-14T00:47:24;100981.56;;;2.28;100.00
68525;BME280;55524;51.380;13.372;2024-02-14T00:49:50;100984.19;;;2.33;100.00
68525;BME280;55524;51.380;13.372;2024-02-14T00:52:17;100993.78;;;2.41;100.00
68525;BME280;55524;51.380;13.372;2024-02-14T00:54:44;100989.47;;;2.43;100.00
68525;BME280;55524;51.380;13.372;2024-02-14T00:57:10;100982.56;;;2.50;100.00
68525;BME280;55524;51.380;13.372;2024-02-14T00:59:37;100994.75;;;2.56;100.00
68525;BME280;55524;51.380;13.372;2024-02-14T01:02:05;100985.19;;;2.61;100.00
68525;BME280;55524;51.380;13.372;2024-02-14T01:04:31;100991.28;;;2.64;100.00
68525;BME280;55524;51.380;13.372;2024-02-14T01:06:57;100991.31;;;2.70;100.00
68525;BME280;55524;51.380;13.372;2024-02-14T01:09:24;100990.50;;;2.78;100.00
68525;BME280;55524;51.380;13.372;2024-02-14T01:11:50;100984.38;;;2.79;100.00
68525;BME280;55524;51.380;13.372;2024-02-14T01:14:17;100982.63;;;2.81;100.00
68525;BME280;55524;51.380;13.372;2024-02-14T01:16:44;100978.31;;;2.83;100.00
68525;BME280;55524;51.380;13.372;2024-02-14T01:19:11;100977.44;;;2.81;100.00
68525;BME280;55524;51.380;13.372;2024-02-14T01:21:38;100977.44;;;2.81;100.00
68525;BME280;55524;51.380;13.372;2024-02-14T01:24:05;100975.69;;;2.84;100.00
68525;BME280;55524;51.380;13.372;2024-02-14T01:26:34;100975.72;;;2.86;100.00
68525;BME280;55524;51.380;13.372;2024-02-14T01:29:03;100977.47;;;2.85;100.00
68525;BME280;55524;51.380;13.372;2024-02-14T01:31:32;100972.25;;;2.87;100.00
68525;BME280;55524;51.380;13.372;2024-02-14T01:34:00;100977.44;;;2.81;100.00
68525;BME280;55524;51.380;13.372;2024-02-14T01:36:30;100972.19;;;2.76;100.00
68525;BME280;55524;51.380;13.372;2024-02-14T01:38:56;100977.41;;;2.76;100.00
68525;BME280;55524;51.380;13.372;2024-02-14T01:41:22;100961.75;;;2.81;100.00
68525;BME280;55524;51.380;13.372;2024-02-14T01:43:49;100960.94;;;2.82;100.00
68525;BME280;55524;51.380;13.372;2024-02-14T01:46:15;100961.75;;;2.81;100.00
68525;BME280;55524;51.380;13.372;2024-02-14T01:48:42;100953.94;;;2.81;100.00
68525;BME280;55524;51.380;13.372;2024-02-14T01:51:10;100947.84;;;2.76;100.00
68525;BME280;55524;51.380;13.372;2024-02-14T01:53:37;100945.22;;;2.77;100.00
68525;BME280;55524;51.380;13.372;2024-02-14T01:56:07;100946.09;;;2.76;100.00
68525;BME280;55524;51.380;13.372;2024-02-14T01:58:36;100953.06;;;2.77;100.00
68525;BME280;55524;51.380;13.372;2024-02-14T02:01:04;100956.56;;;2.78;100.00
68525;BME280;55524;51.380;13.372;2024-02-14T02:03:30;100938.28;;;2.88;100.00
68525;BME280;55524;51.380;13.372;2024-02-14T02:06:01;100943.53;;;2.94;100.00
68525;BME280;55524;51.380;13.372;2024-02-14T02:08:27;100940.94;;;3.01;100.00
68525;BME280;55524;51.380;13.372;2024-02-14T02:10:54;100933.97;;;2.98;100.00
68525;BME280;55524;51.380;13.372;2024-02-14T02:13:20;100944.44;;;3.07;100.00
68525;BME280;55524;51.380;13.372;2024-02-14T02:15:47;100943.56;;;3.10;100.00
68525;BME280;55524;51.380;13.372;2024-02-14T02:18:13;100929.63;;;3.15;100.00
68525;BME280;55524;51.380;13.372;2024-02-14T02:20:40;100939.25;;;3.21;100.00
68525;BME280;55524;51.380;13.372;2024-02-14T02:23:13;100929.66;;;3.22;100.00
68525;BME280;55524;51.380;13.372;2024-02-14T02:25:43;100932.25;;;3.28;100.00
68525;BME280;55524;51.380;13.372;2024-02-14T02:28:09;100930.53;;;3.27;100.00
68525;BME280;55524;51.380;13.372;2024-02-14T02:33:23;100926.16;;;3.30;100.00
68525;BME280;55524;51.380;13.372;2024-02-14T02:35:50;100915.72;;;3.32;100.00
68525;BME280;55524;51.380;13.372;2024-02-14T02:38:17;100916.59;;;3.35;100.00
68525;BME280;55524;51.380;13.372;2024-02-14T02:40:44;100911.38;;;3.37;100.00
68525;BME280;55524;51.380;13.372;2024-02-14T02:43:10;100902.66;;;3.45;100.00
68525;BME280;55524;51.380;13.372;2024-02-14T02:45:37;100900.03;;;3.50;100.00
68525;BME280;55524;51.380;13.372;2024-02-14T02:48:04;100905.25;;;3.52;100.00
68525;BME280;55524;51.380;13.372;2024-02-14T02:50:30;100900.91;;;3.51;100.00
68525;BME280;55524;51.380;13.372;2024-02-14T02:52:56;100907.88;;;3.50;100.00
68525;BME280;55524;51.380;13.372;2024-02-14T02:55:23;100907.00;;;3.56;100.00
68525;BME280;55524;51.380;13.372;2024-02-14T02:57:49;100909.59;;;3.51;100.00
68525;BME280;55524;51.380;13.372;2024-02-14T03:00:16;100905.28;;;3.49;100.00
68525;BME280;55524;51.380;13.372;2024-02-14T03:02:43;100909.59;;;3.48;100.00
68525;BME280;55524;51.380;13.372;2024-02-14T03:05:13;100909.63;;;3.45;100.00
68525;BME280;55524;51.380;13.372;2024-02-14T03:07:47;100909.63;;;3.45;100.00
68525;BME280;55524;51.380;13.372;2024-02-14T03:10:14;100905.28;;;3.38;100.00
68525;BME280;55524;51.380;13.372;2024-02-14T03:12:40;100907.88;;;3.42;100.00
68525;BME280;55524;51.380;13.372;2024-02-14T03:15:07;100905.28;;;3.41;100.00
68525;BME280;55524;51.380;13.372;2024-02-14T03:17:36;100918.31;;;3.32;100.00
68525;BME280;55524;51.380;13.372;2024-02-14T03:22:56;100908.75;;;3.23;100.00
68525;BME280;55524;51.380;13.372;2024-02-14T03:25:22;100907.00;;;3.28;100.00
68525;BME280;55524;51.380;13.372;2024-02-14T03:27:49;100900.91;;;3.28;100.00
68525;BME280;55524;51.380;13.372;2024-02-14T03:30:19;100900.91;;;3.23;100.00
68525;BME280;55524;51.380;13.372;2024-02-14T03:32:49;100903.53;;;3.18;100.00
68525;BME280;55524;51.380;13.372;2024-02-14T03:35:16;100902.66;;;3.23;100.00
68525;BME280;55524;51.380;13.372;2024-02-14T03:37:45;100892.22;;;3.19;100.00
68525;BME280;55524;51.380;13.372;2024-02-14T03:40:14;100890.47;;;3.18;100.00
68525;BME280;55524;51.380;13.372;2024-02-14T03:42:50;100891.34;;;3.17;100.00
68525;BME280;55524;51.380;13.372;2024-02-14T03:45:17;100896.56;;;3.14;100.00
68525;BME280;55524;51.380;13.372;2024-02-14T03:47:44;100891.34;;;3.17;100.00
68525;BME280;55524;51.380;13.372;2024-02-14T03:50:10;100880.91;;;3.17;100.00
68525;BME280;55524;51.380;13.372;2024-02-14T03:52:36;100873.94;;;3.19;100.00
68525;BME280;55524;51.380;13.372;2024-02-14T03:55:04;100881.78;;;3.29;100.00
68525;BME280;55524;51.380;13.372;2024-02-14T03:57:31;100874.81;;;3.34;100.00
68525;BME280;55524;51.380;13.372;2024-02-14T04:00:19;100868.72;;;3.41;100.00
68525;BME280;55524;51.380;13.372;2024-02-14T04:02:51;100870.44;;;3.47;100.00
68525;BME280;55524;51.380;13.372;2024-02-14T04:05:25;100876.53;;;3.44;100.00
68525;BME280;55524;51.380;13.372;2024-02-14T04:10:47;100866.94;;;3.54;100.00
68525;BME280;55524;51.380;13.372;2024-02-14T04:13:32;100873.06;;;3.50;100.00
68525;BME280;55524;51.380;13.372;2024-02-14T04:16:02;100863.44;;;3.55;100.00
68525;BME280;55524;51.380;13.372;2024-02-14T04:18:59;100863.44;;;3.52;100.00
68525;BME280;55524;51.380;13.372;2024-02-14T04:21:25;100859.97;;;3.60;100.00
68525;BME280;55524;51.380;13.372;2024-02-14T04:23:51;100863.41;;;3.64;100.00
68525;BME280;55524;51.380;13.372;2024-02-14T04:26:21;100861.72;;;3.64;100.00
68525;BME280;55524;51.380;13.372;2024-02-14T04:28:48;100861.69;;;3.66;100.00
68525;BME280;55524;51.380;13.372;2024-02-14T04:31:14;100859.06;;;3.69;100.00
68525;BME280;55524;51.380;13.372;2024-02-14T04:33:42;100860.81;;;3.68;100.00
68525;BME280;55524;51.380;13.372;2024-02-14T04:36:08;100856.47;;;3.69;100.00
68525;BME280;55524;51.380;13.372;2024-02-14T04:38:37;100858.19;;;3.67;100.00
68525;BME280;55524;51.380;13.372;2024-02-14T04:41:04;100861.69;;;3.66;100.00
68525;BME280;55524;51.380;13.372;2024-02-14T04:43:30;100862.56;;;3.66;100.00
68525;BME280;55524;51.380;13.372;2024-02-14T04:45:57;100855.59;;;3.62;100.00
68525;BME280;55524;51.380;13.372;2024-02-14T04:48:23;100858.22;;;3.58;100.00
68525;BME280;55524;51.380;13.372;2024-02-14T04:51:15;100862.59;;;3.57;100.00
68525;BME280;55524;51.380;13.372;2024-02-14T04:53:41;100848.63;;;3.61;100.00
68525;BME280;55524;51.380;13.372;2024-02-14T04:56:34;100845.13;;;3.64;100.00
68525;BME280;55524;51.380;13.372;2024-02-14T05:02:03;100844.28;;;3.57;100.00
68525;BME280;55524;51.380;13.372;2024-02-14T05:04:52;100846.94;;;3.53;100.00
68525;BME280;55524;51.380;13.372;2024-02-14T05:07:46;100848.66;;;3.48;100.00
68525;BME280;55524;51.380;13.372;2024-02-14T05:10:13;100846.06;;;3.49;100.00
68525;BME280;55524;51.380;13.372;2024-02-14T05:16:04;100840.81;;;3.52;100.00
68525;BME280;55524;51.380;13.372;2024-02-14T05:22:45;100822.50;;;3.61;100.00
68525;BME280;55524;51.380;13.372;2024-02-14T05:25:46;100824.25;;;3.65;100.00
68525;BME280;55524;51.380;13.372;2024-02-14T05:28:31;100812.03;;;3.67;100.00
68525;BME280;55524;51.380;13.372;2024-02-14T05:31:01;100812.91;;;3.66;100.00
68525;BME280;55524;51.380;13.372;2024-02-14T05:33:51;100807.69;;;3.65;100.00
68525;BME280;55524;51.380;13.372;2024-02-14T05:36:21;100815.53;;;3.66;100.00
68525;BME280;55524;51.380;13.372;2024-02-14T05:39:08;100814.66;;;3.66;100.00
68525;BME280;55524;51.380;13.372;2024-02-14T05:41:40;100821.59;;;3.64;100.00
68525;BME280;55524;51.380;13.372;2024-02-14T05:44:38;100815.53;;;3.63;100.00
68525;BME280;55524;51.380;13.372;2024-02-14T05:47:09;100817.28;;;3.64;100.00
68525;BME280;55524;51.380;13.372;2024-02-14T05:49:42;100809.41;;;3.70;100.00
68525;BME280;55524;51.380;13.372;2024-02-14T05:52:08;100812.00;;;3.77;100.00
68525;BME280;55524;51.380;13.372;2024-02-14T05:54:35;100812.84;;;3.82;100.00
68525;BME280;55524;51.380;13.372;2024-02-14T05:57:13;100808.50;;;3.85;100.00
68525;BME280;55524;51.380;13.372;2024-02-14T05:59:40;100808.44;;;3.91;100.00
68525;BME280;55524;51.380;13.372;2024-02-14T06:02:06;100806.72;;;3.92;100.00
68525;BME280;55524;51.380;13.372;2024-02-14T06:04:41;100804.06;;;3.95;100.00
68525;BME280;55524;51.380;13.372;2024-02-14T06:07:21;100810.13;;;4.03;100.00
68525;BME280;55524;51.380;13.372;2024-02-14T06:13:15;100807.47;;;4.15;100.00
68525;BME280;55524;51.380;13.372;2024-02-14T06:15:41;100806.59;;;4.15;100.00
68525;BME280;55524;51.380;13.372;2024-02-14T06:18:10;100817.00;;;4.23;100.00
68525;BME280;55524;51.380;13.372;2024-02-14T06:20:37;100817.03;;;4.21;100.00
68525;BME280;55524;51.380;13.372;2024-02-14T06:23:22;100817.00;;;4.29;100.00
68525;BME280;55524;51.380;13.372;2024-02-14T06:25:59;100815.19;;;4.37;100.00
68525;BME280;55524;51.380;13.372;2024-02-14T06:28:29;100810.81;;;4.40;100.00
68525;BME280;55524;51.380;13.372;2024-02-14T06:31:07;100806.47;;;4.41;100.00
68525;BME280;55524;51.380;13.372;2024-02-14T06:40:13;100808.94;;;4.58;100.00
68525;BME280;55524;51.380;13.372;2024-02-14T06:42:42;100808.06;;;4.63;100.00
68525;BME280;55524;51.380;13.372;2024-02-14T06:45:34;100801.84;;;4.74;100.00
68525;BME280;55524;51.380;13.372;2024-02-14T06:48:10;100780.78;;;4.89;100.00
68525;BME280;55524;51.380;13.372;2024-02-14T07:01:03;100751.47;;;5.38;100.00
68525;BME280;55524;51.380;13.372;2024-02-14T07:03:48;100744.34;;;5.52;100.00
68525;BME280;55524;51.380;13.372;2024-02-14T07:06:18;100738.16;;;5.59;100.00
68525;BME280;55524;51.380;13.372;2024-02-14T07:09:12;100760.78;;;5.65;100.00
68525;BME280;55524;51.380;13.372;2024-02-14T07:11:54;100768.69;;;5.62;100.00
68525;BME280;55524;51.380;13.372;2024-02-14T07:17:24;100752.03;;;5.67;100.00
68525;BME280;55524;51.380;13.372;2024-02-14T07:19:59;100746.69;;;5.74;100.00
68525;BME280;55524;51.380;13.372;2024-02-14T07:35:10;100722.53;;;6.16;100.00
68525;BME280;55524;51.380;13.372;2024-02-14T07:37:39;100712.72;;;6.29;100.00
68525;BME280;55524;51.380;13.372;2024-02-14T07:40:30;100717.84;;;6.38;100.00
68525;BME280;55524;51.380;13.372;2024-02-14T07:43:07;100714.16;;;6.50;100.00
68525;BME280;55524;51.380;13.372;2024-02-14T07:45:34;100710.53;;;6.56;100.00
68525;BME280;55524;51.380;13.372;2024-02-14T07:48:09;100718.25;;;6.67;100.00
68525;BME280;55524;51.380;13.372;2024-02-14T07:50:35;100708.59;;;6.67;100.00
68525;BME280;55524;51.380;13.372;2024-02-14T07:53:05;100717.31;;;6.71;100.00
68525;BME280;55524;51.380;13.372;2024-02-14T07:58:42;100711.06;;;6.76;100.00
68525;BME280;55524;51.380;13.372;2024-02-14T08:01:19;100714.59;;;6.75;100.00
68525;BME280;55524;51.380;13.372;2024-02-14T08:04:08;100723.38;;;6.73;100.00
68525;BME280;55524;51.380;13.372;2024-02-14T08:06:46;100723.41;;;6.71;100.00
68525;BME280;55524;51.380;13.372;2024-02-14T08:09:19;100722.47;;;6.75;100.00
68525;BME280;55524;51.380;13.372;2024-02-14T08:11:51;100731.25;;;6.73;100.00
68525;BME280;55524;51.380;13.372;2024-02-14T08:14:19;100737.38;;;6.75;100.00
68525;BME280;55524;51.380;13.372;2024-02-14T08:16:45;100742.59;;;6.76;100.00
68525;BME280;55524;51.380;13.372;2024-02-14T08:19:12;100744.19;;;6.85;100.00
68525;BME280;55524;51.380;13.372;2024-02-14T08:21:41;100738.94;;;6.85;100.00
68525;BME280;55524;51.380;13.372;2024-02-14T08:24:08;100738.00;;;6.87;100.00
68525;BME280;55524;51.380;13.372;2024-02-14T08:26:37;100733.44;;;6.99;100.00
68525;BME280;55524;51.380;13.372;2024-02-14T08:29:08;100723.78;;;6.99;100.00
68525;BME280;55524;51.380;13.372;2024-02-14T08:31:36;100729.91;;;7.01;100.00
68525;BME280;55524;51.380;13.372;2024-02-14T08:34:14;100727.19;;;7.06;100.00
68525;BME280;55524;51.380;13.372;2024-02-14T08:37:01;100723.56;;;7.13;100.00
68525;BME280;55524;51.380;13.372;2024-02-14T08:40:08;100705.94;;;7.17;100.00
68525;BME280;55524;51.380;13.372;2024-02-14T09:13:00;100688.06;;;7.76;100.00
68525;BME280;55524;51.380;13.372;2024-02-14T09:15:44;100700.16;;;7.86;100.00
68525;BME280;55524;51.380;13.372;2024-02-14T09:18:10;100692.94;;;7.94;100.00
68525;BME280;55524;51.380;13.372;2024-02-14T09:20:42;100699.81;;;8.01;100.00
68525;BME280;55524;51.380;13.372;2024-02-14T09:23:12;100699.66;;;8.07;100.00
68525;BME280;55524;51.380;13.372;2024-02-14T09:26:54;100672.84;;;8.27;100.00
68525;BME280;55524;51.380;13.372;2024-02-14T09:48:35;100696.69;;;8.58;100.00
68525;BME280;55524;51.380;13.372;2024-02-14T09:51:04;100686.75;;;8.71;100.00
68525;BME280;55524;51.380;13.372;2024-02-14T09:53:40;100695.34;;;8.78;100.00
68525;BME280;55524;51.380;13.372;2024-02-14T09:59:26;100701.44;;;8.80;100.00
68525;BME280;55524;51.380;13.372;2024-02-14T10:02:03;100706.72;;;8.80;100.00
68525;BME280;55524;51.380;13.372;2024-02-14T10:04:32;100711.13;;;8.79;100.00
68525;BME280;55524;51.380;13.372;2024-02-14T10:07:09;100713.91;;;8.73;100.00
68525;BME280;55524;51.380;13.372;2024-02-14T10:10:09;100710.34;;;8.76;100.00
68525;BME280;55524;51.380;13.372;2024-02-14T10:12:39;100711.28;;;8.73;100.00
68525;BME280;55524;51.380;13.372;2024-02-14T10:15:08;100714.81;;;8.72;100.00
68525;BME280;55524;51.380;13.372;2024-02-14T10:18:16;100709.47;;;8.75;100.00
68525;BME280;55524;51.380;13.372;2024-02-14T10:21:05;100712.88;;;8.79;100.00
68525;BME280;55524;51.380;13.372;2024-02-14T10:23:50;100700.34;;;8.89;100.00
68525;BME280;55524;51.380;13.372;2024-02-14T10:26:22;100701.72;;;9.02;100.00
68525;BME280;55524;51.380;13.372;2024-02-14T10:29:08;100704.00;;;9.16;100.00
68525;BME280;55524;51.380;13.372;2024-02-14T10:31:49;100693.38;;;9.19;100.00
68525;BME280;55524;51.380;13.372;2024-02-14T10:34:28;100692.28;;;9.26;100.00
68525;BME280;55524;51.380;13.372;2024-02-14T10:37:15;100684.06;;;9.36;100.00
68525;BME280;55524;51.380;13.372;2024-02-14T10:39:54;100685.22;;;9.57;100.00
68525;BME280;55524;51.380;13.372;2024-02-14T10:42:46;100673.00;;;9.55;100.00
68525;BME280;55524;51.380;13.372;2024-02-14T10:45:45;100669.22;;;9.64;100.00
68525;BME280;55524;51.380;13.372;2024-02-14T10:48:12;100673.44;;;9.69;100.00
68525;BME280;55524;51.380;13.372;2024-02-14T10:51:05;100678.09;;;9.91;100.00
68525;BME280;55524;51.380;13.372;2024-02-14T10:56:52;100664.09;;;10.15;100.00
68525;BME280;55524;51.380;13.372;2024-02-14T10:59:32;100662.03;;;10.26;100.00
68525;BME280;55524;51.380;13.372;2024-02-14T11:02:08;100661.09;;;10.54;100.00
68525;BME280;55524;51.380;13.372;2024-02-14T11:04:35;100657.69;;;10.50;100.00
68525;BME280;55524;51.380;13.372;2024-02-14T11:07:01;100659.41;;;10.78;100.00
68525;BME280;55524;51.380;13.372;2024-02-14T11:09:35;100653.53;;;10.70;100.00
68525;BME280;55524;51.380;13.372;2024-02-14T11:12:11;100652.91;;;10.62;100.00
68525;BME280;55524;51.380;13.372;2024-02-14T11:14:47;100661.13;;;10.79;100.00
68525;BME280;55524;51.380;13.372;2024-02-14T11:17:19;100657.13;;;10.92;100.00
68525;BME280;55524;51.380;13.372;2024-02-14T11:19:52;100650.97;;;10.92;100.00
68525;BME280;55524;51.380;13.372;2024-02-14T11:22:22;100661.97;;;10.79;100.00
68525;BME280;55524;51.380;13.372;2024-02-14T11:24:49;100657.06;;;10.69;100.00
68525;BME280;55524;51.380;13.372;2024-02-14T11:27:20;100656.00;;;10.48;100.00
68525;BME280;55524;51.380;13.372;2024-02-14T11:30:00;100671.94;;;10.46;100.00
68525;BME280;55524;51.380;13.372;2024-02-14T11:32:28;100674.75;;;10.40;100.00
68525;BME280;55524;51.380;13.372;2024-02-14T11:34:55;100685.78;;;10.26;100.00
68525;BME280;55524;51.380;13.372;2024-02-14T11:37:49;100679.84;;;10.18;100.00
68525;BME280;55524;51.380;13.372;2024-02-14T11:40:19;100697.75;;;10.08;100.00
68525;BME280;55524;51.380;13.372;2024-02-14T11:45:57;100687.19;;;10.08;100.00
68525;BME280;55524;51.380;13.372;2024-02-14T11:48:26;100693.22;;;10.14;100.00
68525;BME280;55524;51.380;13.372;2024-02-14T11:50:55;100699.38;;;10.13;100.00
68525;BME280;55524;51.380;13.372;2024-02-14T11:53:22;100689.34;;;10.24;100.00
68525;BME280;55524;51.380;13.372;2024-02-14T11:56:15;100702.41;;;10.30;100.00
68525;BME280;55524;51.380;13.372;2024-02-14T11:58:46;100699.22;;;10.47;100.00
68525;BME280;55524;51.380;13.372;2024-02-14T12:01:38;100677.13;;;10.49;100.00
68525;BME280;55524;51.380;13.372;2024-02-14T12:04:06;100692.75;;;10.55;100.00
68525;BME280;55524;51.380;13.372;2024-02-14T12:06:37;100676.19;;;10.50;100.00
68525;BME280;55524;51.380;13.372;2024-02-14T12:09:07;100693.69;;;10.54;100.00
68525;BME280;55524;51.380;13.372;2024-02-14T12:11:37;100678.22;;;10.42;100.00
68525;BME280;55524;51.380;13.372;2024-02-14T12:14:06;100675.59;;;10.42;100.00
68525;BME280;55524;51.380;13.372;2024-02-14T12:16:36;100682.66;;;10.42;100.00
68525;BME280;55524;51.380;13.372;2024-02-14T12:24:38;100698.09;;;10.54;100.00
68525;BME280;55524;51.380;13.372;2024-02-14T12:27:27;100698.34;;;10.46;100.00
68525;BME280;55524;51.380;13.372;2024-02-14T12:30:00;100721.59;;;10.35;100.00
68525;BME280;55524;51.380;13.372;2024-02-14T12:32:36;100718.19;;;10.31;100.00
68525;BME280;55524;51.380;13.372;2024-02-14T12:35:29;100717.34;;;10.31;100.00
68525;BME280;55524;51.380;13.372;2024-02-14T12:38:08;100722.41;;;10.37;100.00
68525;BME280;55524;51.380;13.372;2024-02-14T12:40:58;100708.84;;;10.48;100.00
68525;BME280;55524;51.380;13.372;2024-02-14T12:43:27;100709.69;;;10.50;100.00
68525;BME280;55524;51.380;13.372;2024-02-14T12:45:53;100724.69;;;10.49;100.00
68525;BME280;55524;51.380;13.372;2024-02-14T12:48:24;100716.84;;;10.46;100.00
68525;BME280;55524;51.380;13.372;2024-02-14T12:55:08;100705.28;;;10.49;100.00
68525;BME280;55524;51.380;13.372;2024-02-14T12:57:37;100711.09;;;10.60;100.00
68525;BME280;55524;51.380;13.372;2024-02-14T13:00:10;100699.09;;;10.76;100.00
68525;BME280;55524;51.380;13.372;2024-02-14T13:02:41;100703.22;;;10.85;100.00
68525;BME280;55524;51.380;13.372;2024-02-14T13:05:08;100704.72;;;10.92;100.00
68525;BME280;55524;51.380;13.372;2024-02-14T13:07:35;100685.44;;;10.89;100.00
68525;BME280;55524;51.380;13.372;2024-02-14T13:10:04;100697.97;;;10.83;100.00
68525;BME280;55524;51.380;13.372;2024-02-14T13:12:41;100704.13;;;10.84;100.00
68525;BME280;55524;51.380;13.372;2024-02-14T13:15:19;100697.94;;;10.85;100.00
68525;BME280;55524;51.380;13.372;2024-02-14T13:17:46;100703.34;;;10.80;100.00
68525;BME280;55524;51.380;13.372;2024-02-14T13:20:13;100700.97;;;10.73;100.00
68525;BME280;55524;51.380;13.372;2024-02-14T13:26:44;100708.19;;;10.68;100.00
68525;BME280;55524;51.380;13.372;2024-02-14T13:32:38;100715.63;;;10.56;100.00
68525;BME280;55524;51.380;13.372;2024-02-14T13:35:19;100725.63;;;10.47;100.00
68525;BME280;55524;51.380;13.372;2024-02-14T13:38:28;100739.00;;;10.42;100.00
68525;BME280;55524;51.380;13.372;2024-02-14T13:41:10;100750.72;;;10.33;100.00
68525;BME280;55524;51.380;13.372;2024-02-14T13:43:40;100750.59;;;10.37;100.00
68525;BME280;55524;51.380;13.372;2024-02-14T13:46:19;100751.59;;;10.34;100.00
68525;BME280;55524;51.380;13.372;2024-02-14T13:48:55;100752.38;;;10.36;100.00
68525;BME280;55524;51.380;13.372;2024-02-14T13:51:24;100749.84;;;10.33;100.00
68525;BME280;55524;51.380;13.372;2024-02-14T13:53:53;100762.03;;;10.37;100.00
68525;BME280;55524;51.380;13.372;2024-02-14T13:56:20;100757.03;;;10.29;100.00
68525;BME280;55524;51.380;13.372;2024-02-14T13:58:58;100753.50;;;10.29;100.00
68525;BME280;55524;51.380;13.372;2024-02-14T14:01:27;100763.25;;;10.27;100.00
68525;BME280;55524;51.380;13.372;2024-02-14T14:07:07;100760.63;;;10.25;100.00
68525;BME280;55524;51.380;13.372;2024-02-14T14:09:44;100761.53;;;10.26;100.00
68525;BME280;55524;51.380;13.372;2024-02-14T14:12:13;100761.22;;;10.35;100.00
68525;BME280;55524;51.380;13.372;2024-02-14T14:14:40;100754.78;;;10.44;100.00
68525;BME280;55524;51.380;13.372;2024-02-14T14:17:07;100745.66;;;10.54;100.00
68525;BME280;55524;51.380;13.372;2024-02-14T14:22:34;100752.81;;;10.50;100.00
68525;BME280;55524;51.380;13.372;2024-02-14T14:25:06;100758.97;;;10.51;100.00
68525;BME280;55524;51.380;13.372;2024-02-14T14:30:48;100745.50;;;10.58;100.00
68525;BME280;55524;51.380;13.372;2024-02-14T14:33:16;100756.00;;;10.62;100.00
68525;BME280;55524;51.380;13.372;2024-02-14T14:35:53;100747.16;;;10.61;100.00
68525;BME280;55524;51.380;13.372;2024-02-14T14:38:37;100747.09;;;10.64;100.00
68525;BME280;55524;51.380;13.372;2024-02-14T14:41:06;100748.00;;;10.63;100.00
68525;BME280;55524;51.380;13.372;2024-02-14T14:43:33;100749.03;;;10.59;100.00
68525;BME280;55524;51.380;13.372;2024-02-14T14:45:59;100748.34;;;10.52;100.00
68525;BME280;55524;51.380;13.372;2024-02-14T14:48:34;100747.47;;;10.52;100.00
68525;BME280;55524;51.380;13.372;2024-02-14T14:54:23;100742.03;;;10.56;100.00
68525;BME280;55524;51.380;13.372;2024-02-14T14:56:53;100754.47;;;10.54;100.00
68525;BME280;55524;51.380;13.372;2024-02-14T14:59:23;100765.88;;;10.55;100.00
68525;BME280;55524;51.380;13.372;2024-02-14T15:01:53;100758.13;;;10.50;100.00
68525;BME280;55524;51.380;13.372;2024-02-14T15:04:20;100769.69;;;10.46;100.00
68525;BME280;55524;51.380;13.372;2024-02-14T15:06:47;100772.50;;;10.40;100.00
68525;BME280;55524;51.380;13.372;2024-02-14T15:09:14;100771.81;;;10.35;100.00
68525;BME280;55524;51.380;13.372;2024-02-14T15:11:40;100770.97;;;10.33;100.00
68525;BME280;55524;51.380;13.372;2024-02-14T15:14:27;100769.97;;;10.37;100.00
68525;BME280;55524;51.380;13.372;2024-02-14T15:17:26;100779.09;;;10.27;100.00
68525;BME280;55524;51.380;13.372;2024-02-14T15:19:54;100772.72;;;10.34;100.00
68525;BME280;55524;51.380;13.372;2024-02-14T15:22:20;100771.19;;;10.27;100.00
68525;BME280;55524;51.380;13.372;2024-02-14T15:24:47;100783.72;;;10.19;100.00
68525;BME280;55524;51.380;13.372;2024-02-14T15:27:14;100784.53;;;10.21;100.00
68525;BME280;55524;51.380;13.372;2024-02-14T15:29:47;100783.72;;;10.19;100.00
68525;BME280;55524;51.380;13.372;2024-02-14T15:32:36;100790.00;;;10.15;100.00